createdAt,value
2023-08-17T00:03:55.620Z,100085.72
2023-08-17T00:08:47.441Z,100090.25
2023-08-17T00:13:39.163Z,100079.38
2023-08-17T00:18:31.197Z,100078.38
2023-08-17T00:23:23.045Z,100078.38
2023-08-17T00:28:15.405Z,100088.94
2023-08-17T00:33:07.307Z,100081.06
2023-08-17T00:37:59.721Z,100074.88
2023-08-17T00:42:51.445Z,100086.41
2023-08-17T00:47:43.693Z,100087.41
2023-08-17T00:52:35.651Z,100081.88
2023-08-17T00:57:28.273Z,100083.75
2023-08-17T01:02:20.765Z,100078.69
2023-08-17T01:07:12.536Z,100081.75
2023-08-17T01:12:29.672Z,100078.22
2023-08-17T01:17:33.446Z,100068.66
2023-08-17T01:22:27.269Z,100075.69
2023-08-17T01:27:19.127Z,100081.06
2023-08-17T01:32:33.384Z,100068.50
2023-08-17T01:37:29.731Z,100076.69
2023-08-17T01:42:23.562Z,100071.63
2023-08-17T01:47:15.580Z,100085.44
2023-08-17T01:52:07.428Z,100090.78
2023-08-17T01:56:59.143Z,100094.28
2023-08-17T02:01:51.199Z,100095.44
2023-08-17T02:06:42.982Z,100092.06
2023-08-17T02:11:34.739Z,100099.72
2023-08-17T02:16:26.570Z,100112.78
2023-08-17T02:21:18.389Z,100113.81
2023-08-17T02:26:12.078Z,100119.84
2023-08-17T02:31:03.884Z,100120.00
2023-08-17T02:35:55.727Z,100116.09
2023-08-17T02:40:49.538Z,100099.66
2023-08-17T02:45:41.282Z,100098.34
2023-08-17T02:50:32.987Z,100095.66
2023-08-17T02:55:24.865Z,100098.63
2023-08-17T03:00:16.614Z,100102.88
2023-08-17T03:05:08.487Z,100098.22
2023-08-17T03:10:00.239Z,100095.53
2023-08-17T03:14:52.001Z,100103.41
2023-08-17T03:19:43.697Z,100099.03
2023-08-17T03:24:35.597Z,100105.56
2023-08-17T03:29:28.221Z,100104.31
2023-08-17T03:34:20.908Z,100096.41
2023-08-17T03:39:12.856Z,100099.09
2023-08-17T03:44:07.156Z,100095.13
2023-08-17T03:48:59.617Z,100101.47
2023-08-17T03:53:51.370Z,100100.25
2023-08-17T03:58:44.920Z,100097.56
2023-08-17T04:03:36.775Z,100094.19
2023-08-17T04:08:28.677Z,100091.69
2023-08-17T04:13:20.456Z,100089.16
2023-08-17T04:18:12.338Z,100091.38
2023-08-17T04:23:04.382Z,100100.25
2023-08-17T04:27:56.264Z,100096.75
2023-08-17T04:32:53.683Z,100098.44
2023-08-17T04:37:46.033Z,100098.25
2023-08-17T04:42:37.837Z,100089.25
2023-08-17T04:47:29.808Z,100091.06
2023-08-17T04:52:21.875Z,100099.25
2023-08-17T04:57:13.881Z,100101.63
2023-08-17T05:02:06.296Z,100093.59
2023-08-17T05:06:58.522Z,100092.91
2023-08-17T05:11:50.798Z,100104.31
2023-08-17T05:16:42.690Z,100107.81
2023-08-17T05:21:37.050Z,100105.16
2023-08-17T05:26:28.960Z,100112.19
2023-08-17T05:31:20.916Z,100105.84
2023-08-17T05:36:15.635Z,100102.34
2023-08-17T05:41:08.231Z,100105.84
2023-08-17T05:46:03.900Z,100099.66
2023-08-17T05:50:57.394Z,100111.03
2023-08-17T05:55:49.221Z,100110.22
2023-08-17T06:00:41.034Z,100131.47
2023-08-17T06:05:32.846Z,100123.59
2023-08-17T06:10:26.497Z,100130.47
2023-08-17T06:15:18.400Z,100134.84
2023-08-17T06:20:11.216Z,100131.47
2023-08-17T06:25:03.380Z,100133.84
2023-08-17T06:29:55.177Z,100134.84
2023-08-17T06:34:47.012Z,100134.69
2023-08-17T06:39:38.739Z,100134.38
2023-08-17T06:44:31.934Z,100130.00
2023-08-17T06:49:23.767Z,100130.88
2023-08-17T06:54:15.798Z,100139.44
2023-08-17T06:59:08.159Z,100126.81
2023-08-17T07:03:59.924Z,100133.22
2023-08-17T07:08:51.757Z,100131.25
2023-08-17T07:13:43.520Z,100137.59
2023-08-17T07:18:35.280Z,100135.78
2023-08-17T07:23:27.326Z,100137.31
2023-08-17T07:28:19.135Z,100132.94
2023-08-17T07:33:11.031Z,100134.09
2023-08-17T07:38:08.917Z,100130.56
2023-08-17T07:43:02.871Z,100129.44
2023-08-17T07:47:54.720Z,100131.94
2023-08-17T07:52:46.595Z,100124.06
2023-08-17T07:57:38.362Z,100128.44
2023-08-17T08:02:30.186Z,100137.47
2023-08-17T08:07:22.001Z,100130.41
2023-08-17T08:12:13.812Z,100131.25
2023-08-17T08:17:05.524Z,100130.41
2023-08-17T08:21:57.384Z,100135.63
2023-08-17T08:26:49.296Z,100135.09
2023-08-17T08:31:41.228Z,100130.56
2023-08-17T08:36:33.316Z,100116.16
2023-08-17T08:41:27.543Z,100124.75
2023-08-17T08:46:21.876Z,100130.09
2023-08-17T08:51:18.216Z,100129.25
2023-08-17T08:56:16.070Z,100124.06
2023-08-17T09:01:09.425Z,100125.75
2023-08-17T09:06:01.447Z,100117.16
2023-08-17T09:10:53.396Z,100126.75
2023-08-17T09:15:45.156Z,100121.22
2023-08-17T09:20:38.497Z,100115.88
2023-08-17T09:25:30.316Z,100115.88
2023-08-17T09:30:22.065Z,100110.00
2023-08-17T09:35:13.775Z,100104.41
2023-08-17T09:40:06.017Z,100098.03
2023-08-17T09:45:02.261Z,100102.47
2023-08-17T09:49:55.723Z,100108.84
2023-08-17T09:54:50.591Z,100113.38
2023-08-17T09:59:42.922Z,100112.38
2023-08-17T10:04:36.894Z,100101.66
2023-08-17T10:09:37.822Z,100086.88
2023-08-17T10:14:38.309Z,100094.63
2023-08-17T10:19:50.061Z,100098.97
2023-08-17T10:29:39.872Z,100090.09
2023-08-17T10:34:32.045Z,100070.66
2023-08-17T10:39:29.460Z,100076.00
2023-08-17T10:44:46.199Z,100075.69
2023-08-17T10:49:39.610Z,100067.50
2023-08-17T10:54:42.709Z,100058.47
2023-08-17T10:59:34.500Z,100062.69
2023-08-17T11:09:23.710Z,100045.66
2023-08-17T11:14:15.477Z,100048.31
2023-08-17T11:19:13.483Z,100038.56
2023-08-17T11:24:10.312Z,100035.63
2023-08-17T11:29:02.198Z,100031.25
2023-08-17T11:33:56.373Z,100034.06
2023-08-17T11:38:48.340Z,100040.97
2023-08-17T11:43:40.267Z,100038.47
2023-08-17T11:53:34.800Z,100035.06
2023-08-17T11:58:44.342Z,100034.25
2023-08-17T12:03:36.738Z,100024.09
2023-08-17T12:08:28.769Z,100013.50
2023-08-17T12:13:20.654Z,100013.38
2023-08-17T12:18:12.410Z,100010.53
2023-08-17T12:23:04.982Z,100007.16
2023-08-17T12:27:59.636Z,100000.13
2023-08-17T12:32:51.371Z,99996.31
2023-08-17T12:37:43.113Z,99984.75
2023-08-17T12:42:34.840Z,99974.28
2023-08-17T12:47:26.634Z,99971.78
2023-08-17T12:52:18.330Z,99979.00
2023-08-17T12:57:12.054Z,99981.66
2023-08-17T13:02:05.104Z,99973.63
2023-08-17T13:06:56.867Z,99964.59
2023-08-17T13:11:48.746Z,99978.00
2023-08-17T13:16:40.612Z,99975.47
2023-08-17T13:21:32.468Z,99960.91
2023-08-17T13:26:24.221Z,99948.53
2023-08-17T13:31:24.510Z,99940.50
2023-08-17T13:36:16.584Z,99963.75
2023-08-17T13:41:08.366Z,99973.63
2023-08-17T13:46:00.361Z,99992.38
2023-08-17T13:50:52.179Z,99983.81
2023-08-17T13:55:43.978Z,99996.75
2023-08-17T14:00:35.757Z,99993.22
2023-08-17T14:05:27.607Z,100014.38
2023-08-17T14:10:32.996Z,100003.50
2023-08-17T14:15:29.501Z,99992.78
2023-08-17T14:20:21.452Z,100001.66
2023-08-17T14:25:13.234Z,100005.16
2023-08-17T14:30:05.845Z,99991.09
2023-08-17T14:34:57.615Z,99994.47
2023-08-17T14:39:49.394Z,99988.28
2023-08-17T14:44:41.214Z,99992.78
2023-08-17T14:49:33.041Z,99977.56
2023-08-17T14:54:26.409Z,99947.41
2023-08-17T14:59:18.560Z,99923.13
2023-08-17T15:04:10.535Z,99899.56
2023-08-17T15:09:04.191Z,99884.47
2023-08-17T15:13:56.036Z,99912.81
2023-08-17T15:18:47.840Z,99903.09
2023-08-17T15:23:39.680Z,99903.91
2023-08-17T15:28:33.027Z,99898.72
2023-08-17T15:33:24.835Z,99910.13
2023-08-17T15:38:16.645Z,99895.56
2023-08-17T15:43:08.503Z,99879.66
2023-08-17T15:48:00.372Z,99870.59
2023-08-17T15:52:52.191Z,99861.56
2023-08-17T15:57:43.983Z,99863.25
2023-08-17T16:02:35.879Z,99870.47
2023-08-17T16:07:28.127Z,99872.16
2023-08-17T16:12:20.317Z,99882.00
2023-08-17T16:17:12.044Z,99884.69
2023-08-17T16:22:03.894Z,99884.00
2023-08-17T16:26:56.217Z,99899.06
2023-08-17T16:32:08.956Z,99905.44
2023-08-17T16:37:01.078Z,99893.50
2023-08-17T16:41:52.992Z,99893.38
2023-08-17T16:46:44.771Z,99894.88
2023-08-17T16:51:36.587Z,99886.69
2023-08-17T16:56:28.399Z,99886.84
2023-08-17T17:01:20.357Z,99886.03
2023-08-17T17:06:12.279Z,99887.69
2023-08-17T17:11:04.264Z,99887.84
2023-08-17T17:15:56.168Z,99887.00
2023-08-17T17:20:48.189Z,99889.69
2023-08-17T17:25:40.357Z,99887.00
2023-08-17T17:30:32.176Z,99867.75
2023-08-17T17:35:24.007Z,99864.72
2023-08-17T17:40:16.041Z,99868.41
2023-08-17T17:45:08.337Z,99869.25
2023-08-17T17:50:00.126Z,99849.16
2023-08-17T17:54:51.977Z,99853.19
2023-08-17T17:59:46.306Z,99839.81
2023-08-17T18:04:38.082Z,99861.22
2023-08-17T18:09:31.018Z,99879.13
2023-08-17T18:14:22.772Z,99896.03
2023-08-17T18:19:15.486Z,99895.34
2023-08-17T18:24:07.610Z,99905.06
2023-08-17T18:28:59.843Z,99911.25
2023-08-17T18:33:51.609Z,99930.00
2023-08-17T18:38:43.504Z,99931.88
2023-08-17T18:43:38.481Z,99947.94
2023-08-17T18:48:30.276Z,99955.44
2023-08-17T18:53:21.988Z,99962.16
2023-08-17T18:58:13.741Z,99968.38
2023-08-17T19:03:06.166Z,99977.41
2023-08-17T19:07:58.831Z,99981.75
2023-08-17T19:12:50.538Z,99982.59
2023-08-17T19:17:42.383Z,99989.94
2023-08-17T19:22:34.161Z,99990.78
2023-08-17T19:27:26.237Z,100000.63
2023-08-17T19:32:18.238Z,100004.34
2023-08-17T19:37:10.222Z,100005.16
2023-08-17T19:42:03.753Z,100002.66
2023-08-17T19:46:56.349Z,100008.69
2023-08-17T19:51:49.650Z,100004.47
2023-08-17T19:56:41.834Z,99997.13
2023-08-17T20:01:37.839Z,99993.63
2023-08-17T20:06:30.994Z,99989.41
2023-08-17T20:11:22.927Z,99987.25
2023-08-17T20:16:14.821Z,99993.75
2023-08-17T20:21:07.401Z,99999.13
2023-08-17T20:26:00.152Z,100011.53
2023-08-17T20:30:59.897Z,100019.56
2023-08-17T20:35:53.492Z,100027.59
2023-08-17T20:40:45.349Z,100023.22
2023-08-17T20:45:41.323Z,100029.44
2023-08-17T20:50:37.422Z,100028.44
2023-08-17T20:55:29.156Z,100027.75
2023-08-17T21:00:21.466Z,100025.91
2023-08-17T21:05:13.275Z,100026.75
2023-08-17T21:10:05.489Z,100025.91
2023-08-17T21:14:58.636Z,100022.41
2023-08-17T21:19:50.360Z,100033.94
2023-08-17T21:24:42.117Z,100032.25
2023-08-17T21:29:33.898Z,100024.22
2023-08-17T21:34:27.620Z,100018.88
2023-08-17T21:39:21.138Z,100010.84
2023-08-17T21:44:13.006Z,100023.53
2023-08-17T21:49:04.834Z,100025.19
2023-08-17T21:53:57.269Z,100030.72
2023-08-17T21:58:49.020Z,100037.91
2023-08-17T22:03:40.772Z,100043.84
2023-08-17T22:08:34.014Z,100035.91
2023-08-17T22:13:25.742Z,100030.53
2023-08-17T22:18:17.572Z,100022.84
2023-08-17T22:23:09.616Z,100042.13
2023-08-17T22:28:01.455Z,100043.94
2023-08-17T22:32:54.133Z,100040.44
2023-08-17T22:37:46.123Z,100041.41
2023-08-17T22:42:39.399Z,100044.09
2023-08-17T22:47:32.582Z,100046.78
2023-08-17T22:52:24.809Z,100055.66
2023-08-17T22:57:17.162Z,100045.78
2023-08-17T23:02:09.116Z,100038.75
2023-08-17T23:07:00.903Z,100030.88
2023-08-17T23:11:52.728Z,100029.72
2023-08-17T23:16:44.490Z,100018.16
2023-08-17T23:21:36.278Z,100019.16
2023-08-17T23:26:28.056Z,100015.63
2023-08-17T23:31:19.871Z,100005.91
2023-08-17T23:36:11.676Z,100016.31
2023-08-17T23:41:03.446Z,100021.69
2023-08-17T23:45:55.260Z,100023.81
2023-08-17T23:50:47.013Z,100032.56
2023-08-17T23:55:38.748Z,100032.56
